Time;durP1;ratioP1;P1;durP2;ratioP2;P2;SDS_P1;SDS_P2;PMS_P1;PMS_P2;Temp;Humidity;BMP_temperature;BMP_pressure;BME280_temperature;BME280_humidity;BME280_pressure;Samples;Min_cycle;Max_cycle;Signal;HPM_P1;HPM_P2
2023/08/31 00:00:34;;;;;;;0.10;0.10;;;;;;;;;;6197399;28;20053;-81
2023/08/31 00:03:35;;;;;;;0.10;0.10;;;;;;;;;;6189764;28;20019;-82
2023/08/31 00:06:35;;;;;;;0.10;0.10;;;;;;;;;;6179597;28;20061;-82
2023/08/31 00:09:35;;;;;;;0.10;0.10;;;;;;;;;;6198975;28;20026;-82
2023/08/31 00:12:36;;;;;;;0.10;0.10;;;;;;;;;;6186439;28;20104;-81
2023/08/31 00:15:36;;;;;;;0.10;0.10;;;;;;;;;;6198860;28;20158;-81
2023/08/31 00:18:36;;;;;;;0.10;0.10;;;;;;;;;;6193855;28;20037;-81
2023/08/31 00:21:37;;;;;;;0.10;0.10;;;;;;;;;;6196651;28;20026;-81
2023/08/31 00:24:37;;;;;;;0.10;0.10;;;;;;;;;;6196784;28;20104;-82
2023/08/31 00:27:37;;;;;;;0.10;0.10;;;;;;;;;;6196315;28;20074;-81
2023/08/31 00:30:37;;;;;;;0.10;0.10;;;;;;;;;;6194911;28;20023;-82
2023/08/31 00:33:38;;;;;;;0.10;0.10;;;;;;;;;;6192621;28;20080;-81
2023/08/31 00:36:38;;;;;;;0.10;0.10;;;;;;;;;;6192092;28;20485;-82
2023/08/31 00:39:38;;;;;;;0.10;0.10;;;;;;;;;;6185359;28;20014;-81
2023/08/31 00:42:39;;;;;;;0.10;0.10;;;;;;;;;;6195919;28;20536;-81
2023/08/31 00:45:40;;;;;;;0.10;0.10;;;;;;;;;;6195502;28;20038;-81
2023/08/31 00:48:40;;;;;;;0.10;0.10;;;;;;;;;;6194190;28;20124;-81
2023/08/31 00:51:41;;;;;;;0.10;0.10;;;;;;;;;;6196183;28;20034;-81
2023/08/31 00:54:44;;;;;;;0.10;0.10;;;;;;;;;;6193492;28;20053;-82
2023/08/31 00:57:45;;;;;;;0.10;0.10;;;;;;;;;;6193842;28;20060;-82
2023/08/31 01:00:45;;;;;;;0.10;0.10;;;;;;;;;;6194501;28;20489;-81
2023/08/31 01:04:05;;;;;;;0.10;0.10;;;;;;;;;;6194995;28;20388;-81
2023/08/31 01:07:19;;;;;;;0.10;0.10;;;;;;;;;;6143474;28;20177;-81
2023/08/31 01:10:23;;;;;;;0.10;0.10;;;;;;;;;;6187769;28;20045;-81
2023/08/31 01:13:24;;;;;;;0.10;0.10;;;;;;;;;;6189072;28;20050;-81
2023/08/31 01:16:24;;;;;;;0.10;0.10;;;;;;;;;;6195353;28;20496;-81
2023/08/31 01:19:43;;;;;;;0.10;0.10;;;;;;;;;;6191919;28;20011;-76
2023/08/31 01:22:48;;;;;;;0.10;0.10;;;;;;;;;;6193568;28;20019;-76
2023/08/31 01:25:48;;;;;;;0.10;0.10;;;;;;;;;;6194917;28;20718;-76
2023/08/31 01:28:49;;;;;;;0.10;0.10;;;;;;;;;;6183279;28;20015;-76
2023/08/31 01:31:49;;;;;;;0.10;0.10;;;;;;;;;;6195585;28;20511;-76
2023/08/31 01:34:50;;;;;;;0.10;0.10;;;;;;;;;;6193453;28;20014;-76
2023/08/31 01:37:53;;;;;;;0.10;0.10;;;;;;;;;;6193843;28;20778;-77
2023/08/31 01:40:53;;;;;;;0.10;0.10;;;;;;;;;;6194694;28;20266;-76
2023/08/31 01:43:54;;;;;;;0.10;0.10;;;;;;;;;;6194136;28;20061;-76
2023/08/31 01:46:57;;;;;;;0.10;0.10;;;;;;;;;;6194136;28;20050;-76
2023/08/31 01:49:58;;;;;;;0.10;0.10;;;;;;;;;;6192967;28;20030;-76
2023/08/31 01:52:58;;;;;;;0.10;0.10;;;;;;;;;;6190350;28;20018;-76
2023/08/31 01:55:58;;;;;;;0.10;0.10;;;;;;;;;;6191871;28;20024;-76
2023/08/31 01:58:58;;;;;;;0.10;0.10;;;;;;;;;;6194509;28;20021;-76
2023/08/31 02:01:58;;;;;;;0.10;0.10;;;;;;;;;;6193704;28;20509;-76
2023/08/31 02:05:01;;;;;;;0.10;0.10;;;;;;;;;;6194029;28;20015;-76
2023/08/31 02:08:01;;;;;;;0.10;0.10;;;;;;;;;;6197267;28;20468;-77
2023/08/31 02:11:02;;;;;;;0.10;0.10;;;;;;;;;;6193892;28;20030;-76
2023/08/31 02:14:03;;;;;;;0.10;0.10;;;;;;;;;;6196062;28;20046;-76
2023/08/31 02:17:03;;;;;;;0.10;0.10;;;;;;;;;;6193012;28;20523;-76
2023/08/31 02:20:06;;;;;;;0.10;0.10;;;;;;;;;;6193531;28;20014;-76
2023/08/31 02:23:06;;;;;;;0.10;0.10;;;;;;;;;;6193830;28;20024;-76
2023/08/31 02:26:06;;;;;;;0.10;0.10;;;;;;;;;;6175688;28;20018;-76
2023/08/31 02:29:06;;;;;;;0.10;0.10;;;;;;;;;;6179033;28;20023;-76
2023/08/31 02:32:07;;;;;;;0.10;0.10;;;;;;;;;;6194800;28;20444;-76
2023/08/31 02:35:07;;;;;;;0.10;0.10;;;;;;;;;;6194886;28;20029;-76
2023/08/31 02:38:07;;;;;;;0.10;0.10;;;;;;;;;;6193047;28;20033;-76
2023/08/31 02:41:07;;;;;;;0.10;0.10;;;;;;;;;;6193490;28;20018;-76
2023/08/31 02:44:07;;;;;;;0.10;0.10;;;;;;;;;;6193320;28;20100;-76
2023/08/31 02:47:08;;;;;;;0.10;0.10;;;;;;;;;;6193258;28;20488;-76
2023/08/31 02:50:08;;;;;;;0.10;0.10;;;;;;;;;;6193344;28;20106;-76
2023/08/31 02:53:08;;;;;;;0.10;0.10;;;;;;;;;;6193972;28;20026;-76
2023/08/31 02:56:09;;;;;;;0.10;0.10;;;;;;;;;;6193555;28;20019;-76
2023/08/31 02:59:09;;;;;;;0.10;0.10;;;;;;;;;;6176116;28;20038;-76
2023/08/31 03:02:10;;;;;;;0.10;0.10;;;;;;;;;;6192043;28;20021;-76
2023/08/31 03:05:10;;;;;;;0.10;0.10;;;;;;;;;;6175205;28;20473;-76
2023/08/31 03:08:10;;;;;;;0.10;0.10;;;;;;;;;;6197491;28;20022;-76
2023/08/31 03:11:11;;;;;;;0.10;0.10;;;;;;;;;;6193123;28;20126;-76
2023/08/31 03:14:11;;;;;;;0.10;0.10;;;;;;;;;;6196437;28;20018;-76
2023/08/31 03:17:12;;;;;;;0.10;0.10;;;;;;;;;;6175018;28;20073;-76
2023/08/31 03:20:12;;;;;;;0.10;0.10;;;;;;;;;;6192968;28;20019;-76
2023/08/31 03:23:12;;;;;;;0.10;0.10;;;;;;;;;;6192991;28;20010;-76
2023/08/31 03:26:12;;;;;;;0.10;0.10;;;;;;;;;;6192874;28;20018;-76
2023/08/31 03:29:12;;;;;;;0.10;0.10;;;;;;;;;;6175379;28;20508;-76
2023/08/31 03:32:13;;;;;;;0.10;0.10;;;;;;;;;;6195688;28;20058;-76
2023/08/31 03:35:13;;;;;;;0.10;0.10;;;;;;;;;;6193212;28;20026;-76
2023/08/31 03:38:13;;;;;;;0.10;0.10;;;;;;;;;;6192736;28;20019;-81
2023/08/31 03:41:13;;;;;;;0.10;0.10;;;;;;;;;;6193183;28;20022;-82
2023/08/31 03:44:13;;;;;;;0.10;0.10;;;;;;;;;;6193685;28;20014;-81
2023/08/31 03:47:13;;;;;;;0.10;0.10;;;;;;;;;;6197277;28;20025;-82
2023/08/31 03:50:14;;;;;;;0.10;0.10;;;;;;;;;;6197337;28;20093;-82
2023/08/31 03:53:14;;;;;;;0.10;0.10;;;;;;;;;;6195176;28;20022;-81
2023/08/31 03:56:14;;;;;;;0.10;0.10;;;;;;;;;;6197714;28;20490;-81
2023/08/31 03:59:14;;;;;;;0.10;0.10;;;;;;;;;;6174458;28;20015;-81
2023/08/31 04:02:14;;;;;;;0.10;0.10;;;;;;;;;;6192967;28;20022;-81
2023/08/31 04:05:15;;;;;;;0.10;0.10;;;;;;;;;;6195726;28;20029;-81
2023/08/31 04:08:16;;;;;;;0.10;0.10;;;;;;;;;;6202092;28;20017;-81
2023/08/31 04:11:16;;;;;;;0.10;0.10;;;;;;;;;;6196867;28;20014;-81
2023/08/31 04:14:18;;;;;;;0.10;0.10;;;;;;;;;;6199729;28;20026;-81
2023/08/31 04:17:18;;;;;;;;;;;;;;;;;;6197011;28;20110;-80
2023/08/31 04:20:18;;;;;;;0.10;0.10;;;;;;;;;;6196379;28;20300;-81
2023/08/31 04:23:19;;;;;;;0.10;0.10;;;;;;;;;;6196481;28;20018;-81
2023/08/31 04:26:20;;;;;;;0.10;0.10;;;;;;;;;;6190356;28;20049;-81
2023/08/31 04:29:20;;;;;;;0.10;0.10;;;;;;;;;;6191839;28;20007;-81
2023/08/31 04:32:20;;;;;;;0.10;0.10;;;;;;;;;;6177950;28;20261;-82
2023/08/31 04:35:20;;;;;;;0.10;0.10;;;;;;;;;;6196783;28;20134;-81
2023/08/31 04:38:21;;;;;;;0.10;0.10;;;;;;;;;;6192573;28;20046;-81
2023/08/31 04:41:21;;;;;;;0.10;0.10;;;;;;;;;;6195094;28;20101;-81
2023/08/31 04:44:22;;;;;;;0.10;0.10;;;;;;;;;;6196134;28;20023;-81
2023/08/31 04:47:22;;;;;;;0.10;0.10;;;;;;;;;;6196927;28;20141;-81
2023/08/31 04:50:23;;;;;;;0.10;0.10;;;;;;;;;;6196280;28;20022;-81
2023/08/31 04:53:23;;;;;;;0.10;0.10;;;;;;;;;;6195262;28;20015;-82
2023/08/31 04:56:23;;;;;;;0.10;0.10;;;;;;;;;;6195143;28;20466;-81
2023/08/31 04:59:23;;;;;;;0.10;0.10;;;;;;;;;;6195368;28;20110;-81
2023/08/31 05:02:24;;;;;;;0.10;0.10;;;;;;;;;;6195499;28;20485;-81
2023/08/31 05:05:24;;;;;;;0.10;0.10;;;;;;;;;;6195467;28;20019;-81
2023/08/31 05:08:24;;;;;;;0.10;0.10;;;;;;;;;;6194768;28;20054;-81
2023/08/31 05:11:24;;;;;;;0.10;0.10;;;;;;;;;;6176690;28;20105;-81
2023/08/31 05:14:25;;;;;;;0.10;0.10;;;;;;;;;;6200665;28;20022;-81
2023/08/31 05:17:25;;;;;;;0.10;0.10;;;;;;;;;;6194697;28;20018;-81
2023/08/31 05:20:25;;;;;;;0.10;0.10;;;;;;;;;;6194658;28;20022;-81
2023/08/31 05:23:25;;;;;;;0.10;0.10;;;;;;;;;;6195127;28;20023;-81
2023/08/31 05:26:25;;;;;;;0.10;0.10;;;;;;;;;;6195156;28;20097;-81
2023/08/31 05:29:26;;;;;;;0.10;0.10;;;;;;;;;;6177158;28;20014;-81
2023/08/31 05:32:28;;;;;;;0.10;0.10;;;;;;;;;;6194449;28;20021;-81
2023/08/31 05:35:28;;;;;;;0.10;0.10;;;;;;;;;;6194626;28;20022;-81
2023/08/31 05:38:28;;;;;;;0.10;0.10;;;;;;;;;;6194679;28;20026;-81
2023/08/31 05:41:28;;;;;;;0.10;0.10;;;;;;;;;;6194327;28;20014;-81
2023/08/31 05:44:28;;;;;;;0.10;0.10;;;;;;;;;;6194006;28;20283;-79
2023/08/31 05:47:29;;;;;;;0.00;0.00;;;;;;;;;;6176804;28;20137;-80
2023/08/31 05:50:30;;;;;;;0.10;0.10;;;;;;;;;;6194358;28;20030;-80
2023/08/31 05:53:30;;;;;;;0.00;0.00;;;;;;;;;;6194077;28;20023;-80
2023/08/31 05:56:30;;;;;;;0.10;0.10;;;;;;;;;;6194066;28;20027;-80
2023/08/31 05:59:30;;;;;;;0.10;0.10;;;;;;;;;;6194182;28;20038;-80
2023/08/31 06:02:31;;;;;;;0.10;0.10;;;;;;;;;;6188656;28;20482;-80
2023/08/31 06:05:31;;;;;;;0.00;0.00;;;;;;;;;;6189705;28;20028;-80
2023/08/31 06:08:31;;;;;;;0.10;0.10;;;;;;;;;;6176362;28;20046;-76
2023/08/31 06:11:32;;;;;;;0.00;0.00;;;;;;;;;;6193977;28;20149;-76
2023/08/31 06:14:32;;;;;;;0.10;0.10;;;;;;;;;;6191413;28;20473;-76
2023/08/31 06:17:34;;;;;;;0.10;0.10;;;;;;;;;;6193303;28;20034;-76
2023/08/31 06:20:35;;;;;;;0.00;0.00;;;;;;;;;;6193781;28;20061;-76
2023/08/31 06:23:35;;;;;;;0.10;0.10;;;;;;;;;;6198876;28;20019;-76
2023/08/31 06:26:35;;;;;;;0.10;0.10;;;;;;;;;;6188860;28;20015;-76
2023/08/31 06:29:35;;;;;;;0.00;0.00;;;;;;;;;;6191251;28;20014;-75
2023/08/31 06:32:36;;;;;;;0.10;0.10;;;;;;;;;;6192963;28;20503;-75
2023/08/31 06:35:37;;;;;;;0.00;0.00;;;;;;;;;;6190802;28;20014;-76
2023/08/31 06:38:37;;;;;;;0.00;0.00;;;;;;;;;;6192671;28;20031;-76
2023/08/31 06:41:37;;;;;;;0.10;0.10;;;;;;;;;;6191572;28;20045;-75
2023/08/31 06:44:38;;;;;;;0.00;0.00;;;;;;;;;;6174964;28;20062;-75
2023/08/31 06:47:38;;;;;;;0.00;0.00;;;;;;;;;;6191344;28;20038;-75
2023/08/31 06:50:38;;;;;;;0.00;0.00;;;;;;;;;;6192422;28;20061;-75
2023/08/31 06:53:38;;;;;;;0.00;0.00;;;;;;;;;;6192662;28;20014;-75
2023/08/31 06:56:38;;;;;;;0.00;0.00;;;;;;;;;;6192104;28;20425;-75
2023/08/31 06:59:39;;;;;;;0.00;0.00;;;;;;;;;;6192596;28;20022;-75
2023/08/31 07:02:39;;;;;;;0.10;0.10;;;;;;;;;;6192281;28;20025;-75
2023/08/31 07:05:43;;;;;;;0.10;0.10;;;;;;;;;;6192465;28;20026;-75
2023/08/31 07:08:45;;;;;;;0.10;0.10;;;;;;;;;;6174839;28;20389;-75
2023/08/31 07:11:45;;;;;;;0.10;0.10;;;;;;;;;;6193115;28;20026;-75
2023/08/31 07:14:45;;;;;;;0.10;0.10;;;;;;;;;;6189438;28;20029;-75
2023/08/31 07:17:45;;;;;;;0.10;0.10;;;;;;;;;;6192066;28;20018;-78
2023/08/31 07:20:46;;;;;;;0.10;0.10;;;;;;;;;;6195182;28;20030;-78
2023/08/31 07:23:46;;;;;;;0.00;0.00;;;;;;;;;;6196983;28;20089;-79
2023/08/31 07:26:46;;;;;;;0.10;0.10;;;;;;;;;;6196445;28;20018;-79
2023/08/31 07:29:47;;;;;;;0.00;0.00;;;;;;;;;;6196313;28;20073;-79
2023/08/31 07:32:47;;;;;;;0.00;0.00;;;;;;;;;;6196599;28;20037;-79
2023/08/31 07:35:47;;;;;;;0.10;0.10;;;;;;;;;;6192089;28;20440;-79
2023/08/31 07:38:47;;;;;;;0.00;0.00;;;;;;;;;;6196292;28;20062;-79
2023/08/31 07:41:47;;;;;;;0.10;0.10;;;;;;;;;;6197012;28;20026;-78
2023/08/31 07:44:48;;;;;;;0.10;0.10;;;;;;;;;;6195949;28;20398;-78
2023/08/31 07:47:48;;;;;;;0.10;0.10;;;;;;;;;;6195409;28;20028;-79
2023/08/31 07:50:51;;;;;;;0.10;0.10;;;;;;;;;;6191737;28;20038;-78
2023/08/31 07:53:51;;;;;;;0.10;0.10;;;;;;;;;;6189123;28;20030;-78
2023/08/31 07:56:52;;;;;;;0.00;0.00;;;;;;;;;;6187271;28;20045;-78
2023/08/31 07:59:52;;;;;;;0.00;0.00;;;;;;;;;;6194617;28;20014;-78
2023/08/31 08:02:52;;;;;;;0.10;0.10;;;;;;;;;;6193703;28;20069;-78
2023/08/31 08:05:52;;;;;;;0.10;0.10;;;;;;;;;;6190764;28;20521;-78
2023/08/31 08:08:52;;;;;;;0.10;0.10;;;;;;;;;;6178893;28;20018;-78
2023/08/31 08:11:53;;;;;;;0.00;0.00;;;;;;;;;;6190332;28;20023;-78
2023/08/31 08:14:53;;;;;;;0.00;0.00;;;;;;;;;;6198170;28;20042;-78
2023/08/31 08:17:53;;;;;;;0.00;0.00;;;;;;;;;;6192943;28;20474;-77
2023/08/31 08:20:53;;;;;;;0.00;0.00;;;;;;;;;;6195844;28;20010;-78
2023/08/31 08:23:54;;;;;;;0.00;0.00;;;;;;;;;;6195852;28;20448;-78
2023/08/31 08:26:54;;;;;;;0.00;0.00;;;;;;;;;;6202429;28;20033;-78
2023/08/31 08:29:54;;;;;;;0.00;0.00;;;;;;;;;;6194751;28;20093;-75
2023/08/31 08:32:55;;;;;;;0.00;0.00;;;;;;;;;;6195342;28;20065;-75
2023/08/31 08:35:59;;;;;;;0.10;0.10;;;;;;;;;;6190996;28;20041;-75
2023/08/31 08:38:59;;;;;;;0.00;0.00;;;;;;;;;;6195729;28;20018;-75
2023/08/31 08:42:01;;;;;;;0.00;0.00;;;;;;;;;;6195805;28;20019;-75
2023/08/31 08:45:02;;;;;;;0.00;0.00;;;;;;;;;;6195339;28;20050;-75
2023/08/31 08:48:04;;;;;;;0.00;0.00;;;;;;;;;;6195902;28;20754;-75
2023/08/31 08:51:05;;;;;;;0.10;0.10;;;;;;;;;;6195725;28;20486;-75
2023/08/31 08:54:06;;;;;;;0.00;0.00;;;;;;;;;;6193691;28;20026;-75
2023/08/31 08:57:06;;;;;;;0.00;0.00;;;;;;;;;;6193071;28;20029;-75
2023/08/31 09:00:07;;;;;;;0.00;0.00;;;;;;;;;;6194615;28;20019;-75
2023/08/31 09:03:07;;;;;;;0.00;0.00;;;;;;;;;;6193002;28;20077;-75
2023/08/31 09:06:08;;;;;;;0.00;0.00;;;;;;;;;;6195361;28;20072;-75
2023/08/31 09:09:09;;;;;;;0.00;0.00;;;;;;;;;;6195274;28;20045;-75
2023/08/31 09:12:09;;;;;;;0.00;0.00;;;;;;;;;;6195178;28;20015;-75
2023/08/31 09:15:10;;;;;;;0.00;0.00;;;;;;;;;;6197966;28;20019;-75
2023/08/31 09:18:16;;;;;;;0.00;0.00;;;;;;;;;;6195365;28;20022;-75
2023/08/31 09:21:16;;;;;;;0.00;0.00;;;;;;;;;;6191797;28;20010;-75
2023/08/31 09:24:19;;;;;;;0.00;0.00;;;;;;;;;;6194243;28;20102;-75
2023/08/31 09:27:20;;;;;;;0.00;0.00;;;;;;;;;;6189249;28;20015;-75
2023/08/31 09:30:20;;;;;;;0.00;0.00;;;;;;;;;;6194178;28;20105;-75
2023/08/31 09:33:20;;;;;;;0.00;0.00;;;;;;;;;;6194062;28;20125;-75
2023/08/31 09:36:22;;;;;;;0.00;0.00;;;;;;;;;;6194473;28;20026;-75
2023/08/31 09:39:22;;;;;;;0.00;0.00;;;;;;;;;;6191180;28;20029;-77
2023/08/31 09:42:35;;;;;;;0.00;0.00;;;;;;;;;;6189299;28;20473;-77
2023/08/31 09:45:36;;;;;;;0.00;0.00;;;;;;;;;;6192700;28;20517;-77
2023/08/31 09:48:37;;;;;;;0.00;0.00;;;;;;;;;;6188901;28;20057;-77
2023/08/31 09:51:39;;;;;;;0.00;0.00;;;;;;;;;;6193702;28;20445;-77
2023/08/31 09:54:40;;;;;;;0.00;0.00;;;;;;;;;;6192655;28;20034;-77
2023/08/31 09:57:40;;;;;;;0.00;0.00;;;;;;;;;;6193015;28;20025;-77
2023/08/31 10:00:41;;;;;;;0.00;0.00;;;;;;;;;;6174852;28;20133;-77
2023/08/31 10:03:42;;;;;;;0.00;0.00;;;;;;;;;;6192868;28;20053;-77
2023/08/31 10:06:43;;;;;;;0.00;0.00;;;;;;;;;;6191834;28;20413;-77
2023/08/31 10:09:44;;;;;;;0.00;0.00;;;;;;;;;;6193159;28;20397;-77
2023/08/31 10:12:45;;;;;;;0.00;0.00;;;;;;;;;;6193873;28;20022;-77
2023/08/31 10:15:45;;;;;;;;;;;;;;;;;;6196269;28;20366;-77
2023/08/31 10:18:45;;;;;;;0.00;0.00;;;;;;;;;;6193387;28;19910;-77
2023/08/31 10:21:46;;;;;;;0.00;0.00;;;;;;;;;;6190249;28;20080;-76
2023/08/31 10:24:59;;;;;;;0.00;0.00;;;;;;;;;;6191406;28;20018;-76
2023/08/31 10:27:59;;;;;;;0.00;0.00;;;;;;;;;;6193494;28;20436;-76
2023/08/31 10:31:05;;;;;;;0.00;0.00;;;;;;;;;;6193077;28;20026;-76
2023/08/31 10:34:09;;;;;;;0.00;0.00;;;;;;;;;;6188359;28;20026;-76
2023/08/31 10:37:19;;;;;;;0.00;0.00;;;;;;;;;;6185382;28;20035;-76
2023/08/31 10:40:19;;;;;;;0.00;0.00;;;;;;;;;;6193181;28;20021;-76
2023/08/31 10:43:19;;;;;;;0.00;0.00;;;;;;;;;;6184469;28;20019;-76
2023/08/31 10:46:28;;;;;;;0.00;0.00;;;;;;;;;;6193065;28;20046;-76
2023/08/31 10:49:29;;;;;;;0.00;0.00;;;;;;;;;;6186725;28;20014;-76
2023/08/31 10:52:29;;;;;;;0.00;0.00;;;;;;;;;;6188267;28;20097;-76
2023/08/31 10:55:31;;;;;;;0.00;0.00;;;;;;;;;;6194159;28;20022;-76
2023/08/31 10:58:31;;;;;;;0.00;0.00;;;;;;;;;;6194336;28;20037;-76
2023/08/31 11:01:50;;;;;;;0.00;0.00;;;;;;;;;;6197685;28;20772;-76
2023/08/31 11:04:54;;;;;;;0.00;0.00;;;;;;;;;;6196191;28;20110;-77
2023/08/31 11:07:56;;;;;;;0.00;0.00;;;;;;;;;;6195481;28;20033;-76
2023/08/31 11:10:56;;;;;;;0.00;0.00;;;;;;;;;;6197510;28;20033;-76
2023/08/31 11:13:57;;;;;;;0.00;0.00;;;;;;;;;;6200211;28;20018;-76
2023/08/31 11:16:57;;;;;;;0.00;0.00;;;;;;;;;;6195553;28;20030;-77
2023/08/31 11:19:57;;;;;;;0.00;0.00;;;;;;;;;;6192259;28;20034;-76
2023/08/31 11:22:58;;;;;;;0.00;0.00;;;;;;;;;;6195182;28;20023;-76
2023/08/31 11:25:58;;;;;;;0.00;0.00;;;;;;;;;;6197671;28;20018;-76
2023/08/31 11:28:59;;;;;;;0.00;0.00;;;;;;;;;;6195001;28;20511;-76
2023/08/31 11:32:02;;;;;;;0.00;0.00;;;;;;;;;;6191844;28;20444;-76
2023/08/31 11:35:03;;;;;;;0.00;0.00;;;;;;;;;;6197039;28;20064;-76
2023/08/31 11:38:04;;;;;;;0.00;0.00;;;;;;;;;;6180248;28;20026;-76
2023/08/31 11:41:04;;;;;;;0.00;0.00;;;;;;;;;;6200208;28;20102;-76
2023/08/31 11:44:04;;;;;;;0.00;0.00;;;;;;;;;;6193995;28;20028;-76
2023/08/31 11:47:05;;;;;;;0.00;0.00;;;;;;;;;;6196306;28;20056;-76
2023/08/31 11:50:06;;;;;;;0.00;0.00;;;;;;;;;;6195536;28;20085;-76
2023/08/31 11:53:06;;;;;;;0.00;0.00;;;;;;;;;;6195673;28;20084;-76
2023/08/31 11:56:07;;;;;;;0.00;0.00;;;;;;;;;;6177496;28;20026;-76
2023/08/31 11:59:08;;;;;;;0.00;0.00;;;;;;;;;;6196095;28;20033;-77
2023/08/31 12:02:08;;;;;;;;;;;;;;;;;;6196292;28;20022;-77
2023/08/31 12:05:09;;;;;;;0.00;0.00;;;;;;;;;;6195514;28;19913;-77
2023/08/31 12:08:09;;;;;;;0.00;0.00;;;;;;;;;;6195858;28;20018;-77
2023/08/31 12:11:09;;;;;;;0.00;0.00;;;;;;;;;;6195958;28;20564;-77
2023/08/31 12:14:22;;;;;;;0.00;0.00;;;;;;;;;;6198819;28;20548;-77
2023/08/31 12:17:23;;;;;;;0.00;0.00;;;;;;;;;;6177206;28;20034;-77
2023/08/31 12:20:26;;;;;;;0.00;0.00;;;;;;;;;;6196198;28;20542;-77
2023/08/31 12:23:26;;;;;;;0.00;0.00;;;;;;;;;;6195562;28;20022;-77
2023/08/31 12:26:27;;;;;;;0.00;0.00;;;;;;;;;;6202522;28;20088;-77
2023/08/31 12:29:27;;;;;;;0.00;0.00;;;;;;;;;;6199030;28;20097;-78
2023/08/31 12:32:27;;;;;;;0.00;0.00;;;;;;;;;;6195809;28;20030;-78
2023/08/31 12:35:28;;;;;;;0.00;0.00;;;;;;;;;;6196192;28;20034;-77
2023/08/31 12:38:28;;;;;;;0.00;0.00;;;;;;;;;;6195860;28;20401;-77
2023/08/31 12:41:29;;;;;;;0.00;0.00;;;;;;;;;;6178457;28;20022;-76
2023/08/31 12:44:29;;;;;;;0.00;0.00;;;;;;;;;;6195606;28;20038;-76
2023/08/31 12:47:29;;;;;;;0.00;0.00;;;;;;;;;;6194939;28;20076;-75
2023/08/31 12:50:29;;;;;;;0.00;0.00;;;;;;;;;;6189872;28;20469;-75
2023/08/31 12:53:30;;;;;;;0.00;0.00;;;;;;;;;;6194530;28;20026;-76
2023/08/31 12:56:30;;;;;;;0.00;0.00;;;;;;;;;;6195515;28;20058;-76
2023/08/31 12:59:30;;;;;;;0.00;0.00;;;;;;;;;;6194984;28;20030;-76
2023/08/31 13:02:30;;;;;;;0.00;0.00;;;;;;;;;;6195101;28;20600;-76
2023/08/31 13:05:31;;;;;;;0.00;0.00;;;;;;;;;;6194503;28;20022;-75
2023/08/31 13:08:31;;;;;;;0.00;0.00;;;;;;;;;;6190703;28;20593;-75
2023/08/31 13:11:31;;;;;;;0.00;0.00;;;;;;;;;;6176335;28;20022;-75
2023/08/31 13:14:31;;;;;;;0.00;0.00;;;;;;;;;;6197338;28;20477;-76
2023/08/31 13:17:32;;;;;;;0.00;0.00;;;;;;;;;;6192489;28;20026;-76
2023/08/31 13:20:32;;;;;;;0.00;0.00;;;;;;;;;;6195403;28;20018;-76
2023/08/31 13:23:32;;;;;;;0.00;0.00;;;;;;;;;;6195307;28;20452;-77
2023/08/31 13:26:32;;;;;;;0.00;0.00;;;;;;;;;;6188620;28;20030;-76
2023/08/31 13:29:33;;;;;;;0.00;0.00;;;;;;;;;;6193384;28;20030;-77
2023/08/31 13:32:33;;;;;;;0.00;0.00;;;;;;;;;;6201024;28;20034;-77
2023/08/31 13:35:34;;;;;;;0.00;0.00;;;;;;;;;;6196654;28;20026;-77
2023/08/31 13:38:34;;;;;;;0.00;0.00;;;;;;;;;;6196761;28;20125;-77
2023/08/31 13:41:35;;;;;;;0.00;0.00;;;;;;;;;;6193888;28;20069;-77
2023/08/31 13:44:35;;;;;;;0.00;0.00;;;;;;;;;;6191770;28;20078;-77
2023/08/31 13:47:36;;;;;;;0.00;0.00;;;;;;;;;;6192351;28;20039;-77
2023/08/31 13:50:37;;;;;;;0.00;0.00;;;;;;;;;;6191176;28;20030;-77
2023/08/31 13:53:37;;;;;;;0.00;0.00;;;;;;;;;;6191347;28;20481;-77
2023/08/31 13:56:37;;;;;;;0.00;0.00;;;;;;;;;;6176453;28;20053;-77
2023/08/31 13:59:37;;;;;;;0.00;0.00;;;;;;;;;;6191599;28;20057;-77
2023/08/31 14:02:37;;;;;;;0.00;0.00;;;;;;;;;;6192220;28;20113;-77
2023/08/31 14:05:37;;;;;;;0.10;0.10;;;;;;;;;;6194035;28;20545;-77
2023/08/31 14:08:38;;;;;;;0.00;0.00;;;;;;;;;;6193293;28;20052;-77
2023/08/31 14:11:38;;;;;;;0.00;0.00;;;;;;;;;;6191454;28;20086;-77
2023/08/31 14:14:39;;;;;;;0.00;0.00;;;;;;;;;;6188384;28;20026;-77
2023/08/31 14:17:39;;;;;;;0.00;0.00;;;;;;;;;;6185921;28;20026;-77
2023/08/31 14:20:40;;;;;;;0.00;0.00;;;;;;;;;;6188670;28;20096;-77
2023/08/31 14:23:40;;;;;;;0.00;0.00;;;;;;;;;;6191310;28;20022;-77
2023/08/31 14:26:40;;;;;;;0.00;0.00;;;;;;;;;;6192177;28;20531;-77
2023/08/31 14:29:40;;;;;;;0.00;0.00;;;;;;;;;;6195565;28;20042;-78
2023/08/31 14:32:40;;;;;;;0.00;0.00;;;;;;;;;;6191361;28;20389;-79
2023/08/31 14:35:41;;;;;;;0.00;0.00;;;;;;;;;;6184750;28;20022;-79
2023/08/31 14:38:41;;;;;;;0.00;0.00;;;;;;;;;;6191101;28;20061;-78
2023/08/31 14:41:41;;;;;;;0.00;0.00;;;;;;;;;;6194045;28;20392;-77
2023/08/31 14:44:41;;;;;;;0.00;0.00;;;;;;;;;;6193472;28;20073;-77
2023/08/31 14:47:42;;;;;;;0.00;0.00;;;;;;;;;;6192664;28;20047;-77
2023/08/31 14:50:43;;;;;;;0.00;0.00;;;;;;;;;;6190394;28;20142;-77
2023/08/31 14:53:43;;;;;;;0.00;0.00;;;;;;;;;;6193318;28;20057;-77
2023/08/31 14:56:43;;;;;;;0.00;0.00;;;;;;;;;;6193101;28;20031;-78
2023/08/31 14:59:44;;;;;;;0.00;0.00;;;;;;;;;;6191361;28;20035;-78
2023/08/31 15:02:44;;;;;;;0.00;0.00;;;;;;;;;;6190748;28;20038;-77
2023/08/31 15:05:47;;;;;;;0.00;0.00;;;;;;;;;;6175457;28;20438;-78
2023/08/31 15:08:48;;;;;;;0.00;0.00;;;;;;;;;;6194568;28;20531;-78
2023/08/31 15:11:48;;;;;;;0.00;0.00;;;;;;;;;;6186951;28;20026;-78
2023/08/31 15:14:48;;;;;;;0.00;0.00;;;;;;;;;;6194118;28;20030;-77
2023/08/31 15:17:49;;;;;;;0.00;0.00;;;;;;;;;;6192850;28;20902;-77
2023/08/31 15:20:49;;;;;;;0.00;0.00;;;;;;;;;;6191140;28;20019;-77
2023/08/31 15:23:50;;;;;;;0.00;0.00;;;;;;;;;;6192789;28;20495;-77
2023/08/31 15:26:50;;;;;;;0.00;0.00;;;;;;;;;;6192364;28;20057;-78
2023/08/31 15:29:51;;;;;;;0.00;0.00;;;;;;;;;;6192345;28;20052;-79
2023/08/31 15:32:51;;;;;;;0.00;0.00;;;;;;;;;;6187570;28;20014;-79
2023/08/31 15:35:53;;;;;;;0.00;0.00;;;;;;;;;;6188485;28;20034;-76
2023/08/31 15:38:54;;;;;;;0.00;0.00;;;;;;;;;;6190864;28;20036;-76
2023/08/31 15:41:55;;;;;;;0.00;0.00;;;;;;;;;;6193486;28;20019;-76
2023/08/31 15:44:55;;;;;;;0.00;0.00;;;;;;;;;;6180608;28;20058;-76
2023/08/31 15:47:55;;;;;;;0.00;0.00;;;;;;;;;;6197302;28;20025;-76
2023/08/31 15:50:57;;;;;;;0.00;0.00;;;;;;;;;;6197148;28;20080;-76
2023/08/31 15:53:57;;;;;;;0.00;0.00;;;;;;;;;;6196364;28;20014;-76
2023/08/31 15:56:57;;;;;;;0.00;0.00;;;;;;;;;;6197306;28;20053;-77
2023/08/31 15:59:59;;;;;;;0.00;0.00;;;;;;;;;;6197297;28;20488;-79
2023/08/31 16:02:59;;;;;;;0.00;0.00;;;;;;;;;;6197841;28;20026;-78
2023/08/31 16:05:59;;;;;;;0.00;0.00;;;;;;;;;;6196647;28;20030;-79
2023/08/31 16:08:59;;;;;;;0.00;0.00;;;;;;;;;;6196379;28;20556;-78
2023/08/31 16:11:59;;;;;;;0.00;0.00;;;;;;;;;;6196141;28;20060;-78
2023/08/31 16:15:00;;;;;;;0.00;0.00;;;;;;;;;;6198214;28;20030;-78
2023/08/31 16:18:00;;;;;;;0.00;0.00;;;;;;;;;;6196312;28;20036;-78
2023/08/31 16:21:00;;;;;;;0.00;0.00;;;;;;;;;;6196380;28;20045;-78
2023/08/31 16:24:00;;;;;;;0.00;0.00;;;;;;;;;;6196486;28;20066;-79
2023/08/31 16:27:00;;;;;;;0.10;0.10;;;;;;;;;;6196603;28;20382;-78
2023/08/31 16:30:01;;;;;;;0.10;0.10;;;;;;;;;;6196148;28;20014;-78
2023/08/31 16:33:01;;;;;;;0.00;0.00;;;;;;;;;;6194517;28;20057;-78
2023/08/31 16:36:03;;;;;;;0.10;0.10;;;;;;;;;;6195786;28;20014;-78
2023/08/31 16:39:03;;;;;;;0.08;0.08;;;;;;;;;;6196376;28;20480;-78
2023/08/31 16:42:04;;;;;;;0.00;0.00;;;;;;;;;;6196043;28;20014;-78
2023/08/31 16:45:05;;;;;;;0.00;0.00;;;;;;;;;;6195198;28;21615;-77
2023/08/31 16:48:06;;;;;;;0.10;0.10;;;;;;;;;;6196257;28;20509;-79
2023/08/31 16:51:07;;;;;;;0.10;0.10;;;;;;;;;;6192710;28;20022;-78
2023/08/31 16:54:07;;;;;;;0.10;0.10;;;;;;;;;;6194994;28;20019;-78
2023/08/31 16:57:07;;;;;;;0.10;0.10;;;;;;;;;;6195525;28;20057;-78
2023/08/31 17:00:09;;;;;;;0.10;0.10;;;;;;;;;;6195121;28;20049;-78
2023/08/31 17:03:10;;;;;;;0.00;0.00;;;;;;;;;;6195172;28;20585;-82
2023/08/31 17:06:10;;;;;;;0.10;0.10;;;;;;;;;;6191600;28;20023;-83
2023/08/31 17:09:11;;;;;;;0.10;0.10;;;;;;;;;;6191509;28;20022;-90
2023/08/31 17:12:11;;;;;;;0.10;0.10;;;;;;;;;;6199602;28;20030;-89
2023/08/31 17:15:12;;;;;;;0.10;0.10;;;;;;;;;;6199210;28;20029;-88
2023/08/31 17:18:12;;;;;;;0.10;0.10;;;;;;;;;;6193307;28;20113;-84
2023/08/31 17:21:13;;;;;;;0.10;0.10;;;;;;;;;;6191572;28;20038;-88
2023/08/31 17:24:13;;;;;;;0.10;0.10;;;;;;;;;;6194579;28;20038;-91
2023/08/31 17:27:14;;;;;;;0.10;0.10;;;;;;;;;;6178804;28;20404;-90
2023/08/31 17:30:14;;;;;;;0.10;0.10;;;;;;;;;;6197683;28;20017;-89
2023/08/31 17:33:15;;;;;;;0.10;0.10;;;;;;;;;;6190803;28;20045;-89
2023/08/31 17:36:17;;;;;;;0.10;0.10;;;;;;;;;;6192579;28;20018;-89
2023/08/31 17:39:18;;;;;;;0.10;0.10;;;;;;;;;;6190077;28;20011;-88
2023/08/31 17:42:18;;;;;;;0.10;0.10;;;;;;;;;;6192815;28;20469;-87
2023/08/31 17:45:18;;;;;;;0.10;0.10;;;;;;;;;;6174130;28;20137;-86
2023/08/31 17:48:18;;;;;;;0.10;0.10;;;;;;;;;;6186761;28;20500;-77
2023/08/31 17:51:18;;;;;;;0.10;0.10;;;;;;;;;;6184688;28;20045;-77
2023/08/31 17:54:19;;;;;;;0.10;0.10;;;;;;;;;;6184613;28;20535;-77
2023/08/31 17:57:19;;;;;;;0.10;0.10;;;;;;;;;;6188311;28;20027;-77
2023/08/31 18:00:19;;;;;;;0.10;0.10;;;;;;;;;;6190381;28;20026;-77
2023/08/31 18:03:19;;;;;;;0.10;0.10;;;;;;;;;;6188624;28;20693;-74